Que Sera — FMBG — position and weather

sailwx.info

Track history (hours):
 
Tides and Currents Weather Stations Pressure Air Temp Water Temp Dewpoint Dewpoint Depression Visibility Wind Speed Wind Dir Waves Ship Positions

Que Sera

Last reported at 2018-Jul-14 13:53 UTC. Time now 2018-Jul-20 04:48 UTC.
Position N 54°43' W 005°14'.

Length 16 m.

Type: Sailing vessel. MMSI: 228195600.

Date/timePositionNaut miles runAvg speedWind from/ knotsBaromVisibWave heightAir tempDewpointWater temp
2018-Jul-14 13:53N 54°43' W 005°14'3 7.6
2018-Jul-14 13:30N 54°40' W 005°16'3 6.6
2018-Jul-14 13:00N 54°37' W 005°16'4 8.3
2018-Jul-14 12:30N 54°33' W 005°18'5 7.7
2018-Jul-14 11:55N 54°29' W 005°21'11 0.5
2018-Jul-13 15:32N 54°19' W 005°29'0 1.9
2018-Jul-13 15:30N 54°19' W 005°29'2 3.5
2018-Jul-13 15:01N 54°18' W 005°31'4 4.0
2018-Jul-13 13:53N 54°14' W 005°37'2 5.8
2018-Jul-13 13:29N 54°13' W 005°40'4 4.3
2018-Jul-13 12:32N 54°13' W 005°47'1 4.9
2018-Jul-13 12:20N 54°14' W 005°48'2 0.0
2018-Jul-11 17:13N 54°12' W 005°50'  
2018-Jul-05 13:50N 53°12' W 006°01'3 5.6
2018-Jul-05 13:23N 53°09' W 006°00'2 5.8
2018-Jul-05 12:57N 53°07' W 005°60'3 6.2
2018-Jul-05 12:30N 53°04' W 005°60'3 6.2
2018-Jul-05 12:00N 53°01' W 006°01'2 0.4
2018-Jul-05 07:10N 52°59' W 006°02'0 2.5
2018-Jul-05 07:01N 52°59' W 006°01'2 3.4
2018-Jul-05 06:29N 52°58' W 005°59'1 2.3
2018-Jul-05 05:58N 52°57' W 005°59'  
Track history (hours):
 
Tides and Currents Weather Stations Pressure Air Temp Water Temp Dewpoint Dewpoint Depression Visibility Wind Speed Wind Dir Waves Ship Positions

Que Sera

Last reported at 2018-Jul-14 13:53 UTC. Time now 2018-Jul-20 04:48 UTC.
Position N 54°43' W 005°14'.

Length 16 m.

Type: Sailing vessel. MMSI: 228195600.

Date/timePositionNaut miles runAvg speedWind from/ knotsBaromVisibWave heightAir tempDewpointWater temp
2018-Jul-14 13:53N 54°43' W 005°14'3 7.6
2018-Jul-14 13:30N 54°40' W 005°16'3 6.6
2018-Jul-14 13:00N 54°37' W 005°16'4 8.3
2018-Jul-14 12:30N 54°33' W 005°18'5 7.7
2018-Jul-14 11:55N 54°29' W 005°21'11 0.5
2018-Jul-13 15:32N 54°19' W 005°29'0 1.9
2018-Jul-13 15:30N 54°19' W 005°29'2 3.5
2018-Jul-13 15:01N 54°18' W 005°31'4 4.0
2018-Jul-13 13:53N 54°14' W 005°37'2 5.8
2018-Jul-13 13:29N 54°13' W 005°40'4 4.3
2018-Jul-13 12:32N 54°13' W 005°47'1 4.9
2018-Jul-13 12:20N 54°14' W 005°48'2 0.0
2018-Jul-11 17:13N 54°12' W 005°50'  
2018-Jul-05 13:50N 53°12' W 006°01'3 5.6
2018-Jul-05 13:23N 53°09' W 006°00'2 5.8
2018-Jul-05 12:57N 53°07' W 005°60'3 6.2
2018-Jul-05 12:30N 53°04' W 005°60'3 6.2
2018-Jul-05 12:00N 53°01' W 006°01'2 0.4
2018-Jul-05 07:10N 52°59' W 006°02'0 2.5
2018-Jul-05 07:01N 52°59' W 006°01'2 3.4
2018-Jul-05 06:29N 52°58' W 005°59'1 2.3
2018-Jul-05 05:58N 52°57' W 005°59'  

Dump ship's entire track history